createdAt,value
2023-02-19T00:00:18.906Z,10.72
2023-02-19T00:02:48.391Z,10.69
2023-02-19T00:05:17.748Z,10.64
2023-02-19T00:07:47.052Z,10.61
2023-02-19T00:10:16.604Z,10.63
2023-02-19T00:12:45.806Z,10.55
2023-02-19T00:15:15.307Z,10.47
2023-02-19T00:17:44.557Z,10.48
2023-02-19T00:20:14.306Z,10.46
2023-02-19T00:22:43.649Z,10.38
2023-02-19T00:25:12.871Z,10.36
2023-02-19T00:27:42.114Z,10.28
2023-02-19T00:30:12.043Z,10.24
2023-02-19T00:32:41.407Z,10.20
2023-02-19T00:35:13.612Z,10.21
2023-02-19T00:37:42.866Z,10.15
2023-02-19T00:40:12.164Z,10.11
2023-02-19T00:42:42.222Z,10.04
2023-02-19T00:45:11.600Z,10.04
2023-02-19T00:47:40.947Z,10.01
2023-02-19T00:50:10.296Z,9.97
2023-02-19T00:52:39.654Z,9.93
2023-02-19T00:55:08.928Z,9.93
2023-02-19T00:57:38.161Z,9.91
2023-02-19T01:00:08.443Z,9.97
2023-02-19T01:02:37.722Z,10.09
2023-02-19T01:05:07.377Z,10.22
2023-02-19T01:07:38.097Z,10.31
2023-02-19T01:10:08.200Z,10.38
2023-02-19T01:12:37.548Z,10.39
2023-02-19T01:15:07.351Z,10.39
2023-02-19T01:17:37.000Z,10.37
2023-02-19T01:20:06.824Z,10.32
2023-02-19T01:22:36.043Z,10.29
2023-02-19T01:25:05.714Z,10.30
2023-02-19T01:27:35.061Z,10.30
2023-02-19T01:30:04.771Z,10.26
2023-02-19T01:32:34.107Z,10.22
2023-02-19T01:35:04.316Z,10.27
2023-02-19T01:37:33.704Z,10.33
2023-02-19T01:40:03.858Z,10.38
2023-02-19T01:42:33.221Z,10.41
2023-02-19T01:45:34.450Z,10.52
2023-02-19T01:48:09.268Z,10.56
2023-02-19T01:50:47.514Z,10.57
2023-02-19T01:53:24.115Z,10.57
2023-02-19T01:55:58.189Z,10.60
2023-02-19T01:58:34.123Z,10.66
2023-02-19T02:01:08.817Z,10.69
2023-02-19T02:03:44.961Z,10.71
2023-02-19T02:06:24.859Z,10.75
2023-02-19T02:09:16.813Z,10.79
2023-02-19T02:11:51.526Z,10.84
2023-02-19T02:14:30.268Z,10.89
2023-02-19T02:17:39.073Z,10.90
2023-02-19T02:20:27.146Z,10.97
2023-02-19T02:23:22.446Z,10.95
2023-02-19T02:26:32.442Z,10.92
2023-02-19T02:29:25.307Z,10.95
2023-02-19T02:32:01.434Z,10.92
2023-02-19T02:35:13.550Z,10.93
2023-02-19T02:37:45.630Z,10.92
2023-02-19T02:40:17.655Z,10.92
2023-02-19T02:42:48.119Z,10.88
2023-02-19T02:45:36.385Z,10.92
2023-02-19T02:48:55.710Z,10.91
2023-02-19T02:51:41.494Z,10.90
2023-02-19T02:54:37.232Z,10.90
2023-02-19T02:57:14.917Z,10.91
2023-02-19T02:59:51.663Z,10.90
2023-02-19T03:02:30.248Z,10.92
2023-02-19T03:05:37.771Z,10.97
2023-02-19T03:08:15.667Z,10.99
2023-02-19T03:10:54.798Z,11.00
2023-02-19T03:13:53.563Z,11.02
2023-02-19T03:16:52.408Z,11.03
2023-02-19T03:19:25.567Z,11.06
2023-02-19T03:22:14.137Z,11.04
2023-02-19T03:25:13.800Z,11.01
2023-02-19T03:27:48.428Z,11.01
2023-02-19T03:30:28.540Z,11.01
2023-02-19T03:33:11.013Z,11.02
2023-02-19T03:35:50.986Z,11.04
2023-02-19T03:38:34.138Z,11.08
2023-02-19T03:41:25.684Z,11.09
2023-02-19T03:44:21.989Z,11.10
2023-02-19T03:47:07.127Z,11.07
2023-02-19T03:49:59.372Z,11.05
2023-02-19T03:52:40.159Z,11.04
2023-02-19T03:55:30.914Z,11.02
2023-02-19T03:58:37.718Z,11.02
2023-02-19T04:01:20.114Z,11.01
2023-02-19T04:04:27.317Z,10.99
2023-02-19T04:06:58.680Z,10.98
2023-02-19T04:09:43.428Z,10.98
2023-02-19T04:12:19.229Z,10.93
2023-02-19T04:14:58.875Z,10.94
2023-02-19T04:17:38.872Z,11.00
2023-02-19T04:20:12.217Z,11.01
2023-02-19T04:22:42.623Z,11.01
2023-02-19T04:25:11.964Z,11.02
2023-02-19T04:27:45.246Z,11.01
2023-02-19T04:30:15.286Z,10.99
2023-02-19T04:32:44.684Z,11.01
2023-02-19T04:35:14.015Z,10.99
2023-02-19T04:37:43.497Z,10.97
2023-02-19T04:40:12.775Z,11.01
2023-02-19T04:42:42.149Z,11.02
2023-02-19T04:45:11.416Z,11.01
2023-02-19T04:47:40.610Z,10.98
2023-02-19T04:50:10.140Z,10.95
2023-02-19T04:52:39.462Z,10.87
2023-02-19T04:55:09.383Z,10.89
2023-02-19T04:57:38.685Z,10.86
2023-02-19T05:00:09.337Z,10.85
2023-02-19T05:02:38.647Z,10.89
2023-02-19T05:05:08.191Z,10.84
2023-02-19T05:07:37.498Z,10.86
2023-02-19T05:10:07.044Z,10.86
2023-02-19T05:12:36.376Z,10.88
2023-02-19T05:15:05.926Z,10.87
2023-02-19T05:17:35.592Z,10.84
2023-02-19T05:20:05.456Z,10.84
2023-02-19T05:22:34.767Z,10.83
2023-02-19T05:25:04.485Z,10.78
2023-02-19T05:27:33.739Z,10.77
2023-02-19T05:30:03.074Z,10.79
2023-02-19T05:32:35.835Z,10.79
2023-02-19T05:35:05.578Z,10.76
2023-02-19T05:37:34.838Z,10.77
2023-02-19T05:40:04.602Z,10.82
2023-02-19T05:42:33.861Z,10.77
2023-02-19T05:45:03.161Z,10.78
2023-02-19T05:47:32.961Z,10.76
2023-02-19T05:50:02.336Z,10.76
2023-02-19T05:52:33.249Z,10.76
2023-02-19T05:55:02.485Z,10.72
2023-02-19T05:57:32.438Z,10.66
2023-02-19T06:00:01.740Z,10.67
2023-02-19T06:02:41.808Z,10.63
2023-02-19T06:05:11.710Z,10.62
2023-02-19T06:07:41.739Z,10.58
2023-02-19T06:10:12.529Z,10.54
2023-02-19T06:12:42.261Z,10.54
2023-02-19T06:15:11.609Z,10.56
2023-02-19T06:17:40.887Z,10.61
2023-02-19T06:20:10.683Z,10.59
2023-02-19T06:22:40.067Z,10.58
2023-02-19T06:25:12.600Z,10.62
2023-02-19T06:27:42.253Z,10.59
2023-02-19T06:30:12.627Z,10.62
2023-02-19T06:32:41.881Z,10.64
2023-02-19T06:35:11.141Z,10.62
2023-02-19T06:37:40.424Z,10.67
2023-02-19T06:40:10.039Z,10.69
2023-02-19T06:42:39.291Z,10.68
2023-02-19T06:45:09.017Z,10.74
2023-02-19T06:47:38.300Z,10.77
2023-02-19T06:50:07.844Z,10.76
2023-02-19T06:52:37.253Z,10.77
2023-02-19T06:55:06.510Z,10.82
2023-02-19T06:57:35.683Z,10.83
2023-02-19T07:00:05.558Z,10.83
2023-02-19T07:02:34.854Z,10.72
2023-02-19T07:05:04.387Z,10.71
2023-02-19T07:07:33.659Z,10.68
2023-02-19T07:10:03.182Z,10.68
2023-02-19T07:12:33.662Z,10.67
2023-02-19T07:15:02.927Z,10.66
2023-02-19T07:17:35.013Z,10.69
2023-02-19T07:20:04.697Z,10.72
2023-02-19T07:22:33.936Z,10.80
2023-02-19T07:25:03.226Z,10.78
2023-02-19T07:27:32.640Z,10.74
2023-02-19T07:30:02.638Z,10.80
2023-02-19T07:32:33.666Z,10.83
2023-02-19T07:35:02.902Z,10.83
2023-02-19T07:37:32.503Z,10.84
2023-02-19T07:40:02.249Z,10.82
2023-02-19T07:42:33.094Z,10.79
2023-02-19T07:45:02.519Z,10.70
2023-02-19T07:47:32.736Z,10.70
2023-02-19T07:50:02.129Z,10.69
2023-02-19T07:52:34.393Z,10.74
2023-02-19T07:55:04.011Z,10.81
2023-02-19T07:57:33.239Z,10.90
2023-02-19T08:00:02.796Z,11.00
2023-02-19T08:03:00.218Z,11.16
2023-02-19T08:05:33.276Z,11.30
2023-02-19T08:08:03.057Z,11.43
2023-02-19T08:10:50.708Z,11.62
2023-02-19T08:13:22.624Z,11.79
2023-02-19T08:16:20.040Z,11.89
2023-02-19T08:18:53.625Z,11.94
2023-02-19T08:21:22.937Z,11.93
2023-02-19T08:23:52.165Z,11.92
2023-02-19T08:26:21.596Z,11.86
2023-02-19T08:28:50.854Z,11.79
2023-02-19T08:31:20.202Z,11.83
2023-02-19T08:33:49.537Z,11.86
2023-02-19T08:36:18.882Z,11.88
2023-02-19T08:38:48.330Z,12.01
2023-02-19T08:41:17.796Z,12.25
2023-02-19T08:43:47.037Z,12.51
2023-02-19T08:46:16.634Z,12.64
2023-02-19T08:48:45.912Z,12.72
2023-02-19T08:51:15.428Z,12.57
2023-02-19T08:53:44.957Z,12.41
2023-02-19T08:56:17.826Z,12.45
2023-02-19T08:58:47.601Z,12.50
2023-02-19T09:01:21.339Z,12.70
2023-02-19T09:03:50.759Z,12.77
2023-02-19T09:06:21.719Z,12.71
2023-02-19T09:08:51.023Z,12.72
2023-02-19T09:11:20.915Z,12.76
2023-02-19T09:13:50.112Z,12.82
2023-02-19T09:16:19.416Z,12.82
2023-02-19T09:18:48.746Z,13.03
2023-02-19T09:21:18.139Z,13.05
2023-02-19T09:23:47.376Z,12.96
2023-02-19T09:26:16.744Z,12.80
2023-02-19T09:28:47.147Z,12.96
2023-02-19T09:31:17.349Z,13.32
2023-02-19T09:33:48.686Z,13.50
2023-02-19T09:36:18.939Z,13.52
2023-02-19T09:38:48.232Z,13.20
2023-02-19T09:41:55.042Z,12.98
2023-02-19T09:44:29.761Z,12.72
2023-02-19T09:47:01.994Z,12.70
2023-02-19T09:49:50.098Z,12.62
2023-02-19T09:52:32.793Z,12.53
2023-02-19T09:55:14.997Z,12.43
2023-02-19T09:57:45.958Z,12.54
2023-02-19T10:00:27.835Z,12.82
2023-02-19T10:03:12.180Z,13.00
2023-02-19T10:05:42.040Z,12.71
2023-02-19T10:08:20.279Z,12.59
2023-02-19T10:10:49.608Z,12.73
2023-02-19T10:13:41.468Z,12.83
2023-02-19T10:16:31.212Z,12.64
2023-02-19T10:20:05.546Z,12.69
2023-02-19T10:22:38.449Z,12.91
2023-02-19T10:25:13.016Z,13.05
2023-02-19T10:27:43.665Z,13.11
2023-02-19T10:30:29.290Z,13.20
2023-02-19T10:33:00.542Z,13.34
2023-02-19T10:35:37.284Z,13.43
2023-02-19T10:38:08.339Z,13.52
2023-02-19T10:40:46.308Z,13.65
2023-02-19T10:43:33.182Z,13.74
2023-02-19T10:46:08.368Z,14.00
2023-02-19T10:48:56.826Z,14.19
2023-02-19T10:51:40.076Z,14.32
2023-02-19T10:54:34.773Z,14.47
2023-02-19T10:57:16.034Z,14.53
2023-02-19T11:00:17.110Z,14.29
2023-02-19T11:02:46.483Z,14.25
2023-02-19T11:05:20.116Z,14.28
2023-02-19T11:07:56.839Z,14.41
2023-02-19T11:10:36.319Z,14.50
2023-02-19T11:13:14.961Z,14.47
2023-02-19T11:15:51.032Z,14.36
2023-02-19T11:18:36.247Z,14.35
2023-02-19T11:21:07.918Z,14.18
2023-02-19T11:23:45.517Z,14.05
2023-02-19T11:26:28.421Z,13.78
2023-02-19T11:29:16.619Z,13.51
2023-02-19T11:31:46.486Z,13.40
2023-02-19T11:34:17.400Z,13.48
2023-02-19T11:36:47.516Z,13.55
2023-02-19T11:39:16.704Z,13.55
2023-02-19T11:42:20.461Z,13.48
2023-02-19T11:45:11.292Z,13.46
2023-02-19T11:48:07.951Z,13.52
2023-02-19T11:50:54.990Z,13.51
2023-02-19T11:53:37.268Z,13.54
2023-02-19T11:56:34.096Z,13.65
2023-02-19T11:59:20.900Z,13.58
2023-02-19T12:02:21.018Z,13.53
2023-02-19T12:05:17.661Z,13.65
2023-02-19T12:08:14.862Z,13.89
2023-02-19T12:11:02.546Z,14.05
2023-02-19T12:14:08.759Z,14.43
2023-02-19T12:17:04.216Z,14.49
2023-02-19T12:20:14.170Z,14.56
2023-02-19T12:23:01.444Z,14.46
2023-02-19T12:25:55.267Z,13.77
2023-02-19T12:29:09.361Z,12.59
2023-02-19T12:31:56.891Z,12.21
2023-02-19T12:34:34.896Z,12.14
2023-02-19T12:37:15.948Z,11.97
2023-02-19T12:40:17.808Z,11.82
2023-02-19T12:43:22.832Z,11.69
2023-02-19T12:46:06.678Z,11.48
2023-02-19T12:48:57.139Z,11.14
2023-02-19T12:51:43.129Z,10.92
2023-02-19T12:54:34.515Z,10.80
2023-02-19T12:57:12.450Z,10.68
2023-02-19T13:00:04.731Z,10.48
2023-02-19T13:02:49.407Z,10.29
2023-02-19T13:05:47.474Z,10.00
2023-02-19T13:08:48.798Z,9.74
2023-02-19T13:11:35.705Z,9.44
2023-02-19T13:14:26.346Z,9.22
2023-02-19T13:17:24.164Z,9.07
2023-02-19T13:20:05.400Z,8.88
2023-02-19T13:23:09.547Z,8.61
2023-02-19T13:26:10.241Z,8.49
2023-02-19T13:29:00.972Z,8.43
2023-02-19T13:31:33.029Z,8.40
2023-02-19T13:34:23.378Z,8.47
2023-02-19T13:36:54.672Z,8.44
2023-02-19T13:39:24.245Z,8.46
2023-02-19T13:41:57.126Z,8.55
2023-02-19T13:44:31.022Z,8.67
2023-02-19T13:47:00.928Z,8.66
2023-02-19T13:49:33.982Z,8.61
2023-02-19T13:52:29.459Z,8.70
2023-02-19T13:55:42.712Z,8.75
2023-02-19T13:58:33.833Z,9.05
2023-02-19T14:01:05.561Z,9.19
2023-02-19T14:03:37.824Z,9.38
2023-02-19T14:06:09.971Z,9.67
2023-02-19T14:09:00.333Z,9.88
2023-02-19T14:11:49.498Z,10.32
2023-02-19T14:14:35.390Z,10.53
2023-02-19T14:17:10.343Z,10.78
2023-02-19T14:19:42.635Z,11.00
2023-02-19T14:22:49.746Z,11.15
2023-02-19T14:25:28.547Z,11.06
2023-02-19T14:28:30.383Z,11.03
2023-02-19T14:31:10.817Z,11.07
2023-02-19T14:33:47.740Z,11.20
2023-02-19T14:36:44.192Z,11.37
2023-02-19T14:39:24.950Z,11.38
2023-02-19T14:42:02.749Z,11.31
2023-02-19T14:44:45.712Z,11.26
2023-02-19T14:47:20.048Z,11.18
2023-02-19T14:49:52.156Z,11.09
2023-02-19T14:52:45.862Z,11.00
2023-02-19T14:55:35.279Z,10.98
2023-02-19T14:58:13.425Z,10.88
2023-02-19T15:00:43.927Z,10.73
2023-02-19T15:03:34.238Z,10.69
2023-02-19T15:06:08.946Z,10.73
2023-02-19T15:08:48.573Z,10.81
2023-02-19T15:11:24.827Z,10.77
2023-02-19T15:14:07.833Z,10.62
2023-02-19T15:16:37.501Z,10.55
2023-02-19T15:19:09.977Z,10.51
2023-02-19T15:21:46.063Z,10.36
2023-02-19T15:24:19.062Z,10.21
2023-02-19T15:26:54.619Z,10.12
2023-02-19T15:29:27.791Z,10.02
2023-02-19T15:32:01.145Z,9.94
2023-02-19T15:34:32.604Z,9.90
2023-02-19T15:37:07.718Z,9.81
2023-02-19T15:39:48.380Z,9.77
2023-02-19T15:42:28.308Z,9.72
2023-02-19T15:45:07.528Z,9.61
2023-02-19T15:47:45.633Z,9.59
2023-02-19T15:50:27.032Z,9.64
2023-02-19T15:53:09.410Z,9.69
2023-02-19T15:56:04.083Z,9.63
2023-02-19T15:58:45.741Z,9.60
2023-02-19T16:01:27.142Z,9.59
2023-02-19T16:03:57.340Z,9.58
2023-02-19T16:06:28.559Z,9.58
2023-02-19T16:09:05.952Z,9.51
2023-02-19T16:11:49.747Z,9.42
2023-02-19T16:14:29.356Z,9.35
2023-02-19T16:17:09.823Z,9.29
2023-02-19T16:20:01.355Z,9.25
2023-02-19T16:22:42.818Z,9.23
2023-02-19T16:25:28.992Z,9.29
2023-02-19T16:27:59.375Z,9.37
2023-02-19T16:30:33.995Z,9.48
2023-02-19T16:33:48.736Z,9.59
2023-02-19T16:36:41.578Z,9.56
2023-02-19T16:39:18.047Z,9.36
2023-02-19T16:41:47.267Z,9.25
2023-02-19T16:44:25.255Z,9.19
2023-02-19T16:46:58.191Z,9.15
2023-02-19T16:49:27.489Z,9.05
2023-02-19T16:52:02.634Z,8.97
2023-02-19T16:54:33.107Z,8.92
2023-02-19T16:57:02.329Z,8.86
2023-02-19T16:59:31.559Z,8.75
2023-02-19T17:02:04.177Z,8.69
2023-02-19T17:04:34.787Z,8.66
2023-02-19T17:07:04.222Z,8.56
2023-02-19T17:09:33.472Z,8.47
2023-02-19T17:12:02.686Z,8.42
2023-02-19T17:14:31.973Z,8.35
2023-02-19T17:17:02.293Z,8.36
2023-02-19T17:19:31.841Z,8.32
2023-02-19T17:22:01.243Z,8.24
2023-02-19T17:24:30.600Z,8.18
2023-02-19T17:27:00.007Z,8.16
2023-02-19T17:29:32.970Z,8.14
2023-02-19T17:32:02.254Z,8.11
2023-02-19T17:34:31.712Z,8.05
2023-02-19T17:37:00.970Z,7.95
2023-02-19T17:39:30.191Z,7.87
2023-02-19T17:41:59.420Z,7.79
2023-02-19T17:44:28.629Z,7.68
2023-02-19T17:46:57.896Z,7.59
2023-02-19T17:49:27.155Z,7.50
2023-02-19T17:51:57.040Z,7.44
2023-02-19T17:54:26.259Z,7.44
2023-02-19T17:56:55.536Z,7.38
2023-02-19T17:59:24.785Z,7.38
2023-02-19T18:01:54.089Z,7.30
2023-02-19T18:04:23.348Z,7.26
2023-02-19T18:06:53.982Z,7.21
2023-02-19T18:09:23.365Z,7.12
2023-02-19T18:11:52.600Z,7.09
2023-02-19T18:14:21.854Z,7.06
2023-02-19T18:16:51.263Z,7.03
2023-02-19T18:19:22.503Z,7.01
2023-02-19T18:21:52.397Z,6.92
2023-02-19T18:24:21.584Z,6.89
2023-02-19T18:26:50.892Z,6.82
2023-02-19T18:29:21.966Z,6.82
2023-02-19T18:31:51.439Z,6.75
2023-02-19T18:34:20.747Z,6.63
2023-02-19T18:36:50.159Z,6.62
2023-02-19T18:39:19.411Z,6.57
2023-02-19T18:41:50.879Z,6.50
2023-02-19T18:44:23.241Z,6.50
2023-02-19T18:46:53.784Z,6.51
2023-02-19T18:49:24.685Z,6.52
2023-02-19T18:51:56.456Z,6.52
2023-02-19T18:54:26.526Z,6.50
2023-02-19T18:56:56.161Z,6.53
2023-02-19T18:59:25.433Z,6.51
2023-02-19T19:01:55.032Z,6.49
2023-02-19T19:04:24.441Z,6.43
2023-02-19T19:06:53.675Z,6.34
2023-02-19T19:09:23.045Z,6.31
2023-02-19T19:11:52.457Z,6.31
2023-02-19T19:14:25.178Z,6.26
2023-02-19T19:16:54.587Z,6.14
2023-02-19T19:19:24.204Z,6.09
2023-02-19T19:21:54.805Z,6.04
2023-02-19T19:24:25.039Z,5.94
2023-02-19T19:26:54.446Z,5.91
2023-02-19T19:29:24.016Z,5.83
2023-02-19T19:31:53.741Z,5.73
2023-02-19T19:34:23.151Z,5.64
2023-02-19T19:36:52.481Z,5.56
2023-02-19T19:39:21.739Z,5.48
2023-02-19T19:41:57.912Z,5.47
2023-02-19T19:44:27.194Z,5.40
2023-02-19T19:46:56.616Z,5.34
2023-02-19T19:49:25.957Z,5.27
2023-02-19T19:51:58.584Z,5.22
2023-02-19T19:54:28.710Z,5.20
2023-02-19T19:56:57.989Z,5.13
2023-02-19T19:59:27.273Z,5.06
2023-02-19T20:01:58.008Z,5.04
2023-02-19T20:04:27.705Z,5.02
2023-02-19T20:07:00.198Z,4.99
2023-02-19T20:09:29.722Z,4.92
2023-02-19T20:11:59.054Z,4.86
2023-02-19T20:14:29.052Z,4.78
2023-02-19T20:16:58.744Z,4.75
2023-02-19T20:19:28.177Z,4.68
2023-02-19T20:21:57.418Z,4.66
2023-02-19T20:24:31.080Z,4.62
2023-02-19T20:27:02.701Z,4.55
2023-02-19T20:29:37.102Z,4.51
2023-02-19T20:32:06.651Z,4.50
2023-02-19T20:34:38.139Z,4.49
2023-02-19T20:37:07.778Z,4.47
2023-02-19T20:39:37.581Z,4.42
2023-02-19T20:42:07.404Z,4.44
2023-02-19T20:44:36.896Z,4.42
2023-02-19T20:47:06.250Z,4.41
2023-02-19T20:49:35.635Z,4.36
2023-02-19T20:52:08.376Z,4.29
2023-02-19T20:54:38.417Z,4.29
2023-02-19T20:57:08.387Z,4.27
2023-02-19T20:59:38.786Z,4.21
2023-02-19T21:02:24.713Z,4.24
2023-02-19T21:04:54.210Z,4.22
2023-02-19T21:07:25.843Z,4.25
2023-02-19T21:09:55.230Z,4.28
2023-02-19T21:12:24.635Z,4.24
2023-02-19T21:14:54.060Z,4.27
2023-02-19T21:17:23.421Z,4.27
2023-02-19T21:19:52.749Z,4.34
2023-02-19T21:22:22.738Z,4.26
2023-02-19T21:24:53.253Z,4.19
2023-02-19T21:27:22.947Z,4.13
2023-02-19T21:29:52.260Z,4.13
2023-02-19T21:32:21.622Z,4.20
2023-02-19T21:34:51.322Z,4.21
2023-02-19T21:37:20.621Z,4.12
2023-02-19T21:39:50.134Z,4.03
2023-02-19T21:42:19.476Z,4.03
2023-02-19T21:44:48.797Z,4.09
2023-02-19T21:47:18.053Z,4.14
2023-02-19T21:49:47.302Z,4.12
2023-02-19T21:52:16.614Z,3.96
2023-02-19T21:54:45.860Z,3.91
2023-02-19T21:57:15.090Z,3.88
2023-02-19T21:59:44.389Z,3.90
2023-02-19T22:02:13.984Z,3.95
2023-02-19T22:04:43.217Z,3.96
2023-02-19T22:07:12.631Z,3.97
2023-02-19T22:09:41.900Z,3.92
2023-02-19T22:12:11.201Z,3.97
2023-02-19T22:14:40.452Z,3.97
2023-02-19T22:17:09.810Z,3.93
2023-02-19T22:19:39.350Z,3.92
2023-02-19T22:22:08.567Z,3.99
2023-02-19T22:24:37.949Z,4.06
2023-02-19T22:27:07.260Z,4.11
2023-02-19T22:29:36.615Z,4.14
2023-02-19T22:32:06.010Z,4.17
2023-02-19T22:34:40.581Z,4.18
2023-02-19T22:37:10.639Z,4.19
2023-02-19T22:39:39.894Z,4.15
2023-02-19T22:42:09.194Z,4.14
2023-02-19T22:44:38.617Z,4.11
2023-02-19T22:47:07.888Z,4.02
2023-02-19T22:49:41.092Z,3.94
2023-02-19T22:52:12.792Z,3.97
2023-02-19T22:54:42.096Z,4.06
2023-02-19T22:57:11.312Z,4.12
2023-02-19T22:59:40.574Z,4.12
2023-02-19T23:02:09.863Z,4.06
2023-02-19T23:04:39.153Z,4.05
2023-02-19T23:07:08.863Z,3.97
2023-02-19T23:09:38.208Z,3.96
2023-02-19T23:12:11.288Z,3.93
2023-02-19T23:14:40.492Z,3.91
2023-02-19T23:17:09.845Z,3.85
2023-02-19T23:19:39.050Z,3.87
2023-02-19T23:22:08.584Z,3.94
2023-02-19T23:24:37.828Z,4.02
2023-02-19T23:27:07.120Z,4.04
2023-02-19T23:29:36.413Z,4.02
2023-02-19T23:32:05.832Z,3.99
2023-02-19T23:34:35.189Z,4.03
2023-02-19T23:37:05.569Z,4.02
2023-02-19T23:39:34.814Z,4.03
2023-02-19T23:42:04.127Z,3.98
2023-02-19T23:44:33.653Z,3.98
2023-02-19T23:47:02.888Z,3.96
2023-02-19T23:49:32.182Z,4.03
2023-02-19T23:52:01.469Z,4.15
2023-02-19T23:54:31.342Z,4.27
2023-02-19T23:57:00.947Z,4.35
2023-02-19T23:59:30.394Z,4.39
